メインページ
METAR-TAF:

METAR-TAF

空港 :

Friday Harbor Airport

Friday Harbor, ワシントン, アメリカ合衆国

緯度: 48-31-13N, 経度: 123-01-31W, 海抜: 33m

現時点の気象観測

当レポートは52分前の07:53(UTC)に作成
無風
気温 13°C
湿度 88%
気圧 1019 hPa
視程: 16.1km
高度8500ftの雲は散在している

METAR: KFHR 030753Z AUTO 00000KT 10SM SCT085 13/11 A3010 RMK AO2 SLP191 T01280111 402330094

時間: 01:45 (08:45 UTC)


TAF: 見つかりません

4,000以上の空港の気象観測と天気予報(METAR報とTAF報)

利用可能な観測所は地図上に黄色い丸と赤い丸で示す。

丸の上にカーソルを重ねると観測所名を参照できる。

次にクリックすると気象観測と天気予報を参照できる。

マップの切り替え:黒色「×」印の緑ボタンをクリックして拡大、「-」印の緑ボタンをクリックして縮小、緑色の三角印をクリックして隣りの地図に切り替え


METAR-TAF: